sensor_id;sensor_type;location;lat;lon;timestamp;temperature;humidity
12977;DHT22;6553;48.412;9.514;2023-02-28T00:00:50;19.70;53.70
12977;DHT22;6553;48.412;9.514;2023-02-28T00:03:16;19.70;53.70
12977;DHT22;6553;48.412;9.514;2023-02-28T00:05:42;19.80;53.60
12977;DHT22;6553;48.412;9.514;2023-02-28T00:08:08;19.70;53.50
12977;DHT22;6553;48.412;9.514;2023-02-28T00:10:34;19.80;53.60
12977;DHT22;6553;48.412;9.514;2023-02-28T00:13:04;19.70;53.60
12977;DHT22;6553;48.412;9.514;2023-02-28T00:15:32;19.70;53.40
12977;DHT22;6553;48.412;9.514;2023-02-28T00:17:58;19.80;53.40
12977;DHT22;6553;48.412;9.514;2023-02-28T00:20:24;19.70;53.30
12977;DHT22;6553;48.412;9.514;2023-02-28T00:22:52;19.70;53.40
12977;DHT22;6553;48.412;9.514;2023-02-28T00:25:23;19.80;53.50
12977;DHT22;6553;48.412;9.514;2023-02-28T00:27:51;19.70;53.30
12977;DHT22;6553;48.412;9.514;2023-02-28T00:30:22;19.80;53.50
12977;DHT22;6553;48.412;9.514;2023-02-28T00:32:49;19.80;53.40
12977;DHT22;6553;48.412;9.514;2023-02-28T00:35:16;19.70;53.60
12977;DHT22;6553;48.412;9.514;2023-02-28T00:37:42;19.70;53.40
12977;DHT22;6553;48.412;9.514;2023-02-28T00:40:09;19.70;53.30
12977;DHT22;6553;48.412;9.514;2023-02-28T00:42:37;19.70;53.40
12977;DHT22;6553;48.412;9.514;2023-02-28T00:45:03;19.70;53.30
12977;DHT22;6553;48.412;9.514;2023-02-28T00:47:30;19.70;53.50
12977;DHT22;6553;48.412;9.514;2023-02-28T00:49:57;19.80;53.50
12977;DHT22;6553;48.412;9.514;2023-02-28T00:52:23;19.70;53.30
12977;DHT22;6553;48.412;9.514;2023-02-28T00:54:49;19.70;53.40
12977;DHT22;6553;48.412;9.514;2023-02-28T00:57:14;19.70;53.40
12977;DHT22;6553;48.412;9.514;2023-02-28T00:59:40;19.80;53.60
12977;DHT22;6553;48.412;9.514;2023-02-28T01:02:06;19.70;53.40
12977;DHT22;6553;48.412;9.514;2023-02-28T01:04:32;19.70;53.40
12977;DHT22;6553;48.412;9.514;2023-02-28T01:07:00;19.70;53.40
12977;DHT22;6553;48.412;9.514;2023-02-28T01:09:28;19.80;53.50
12977;DHT22;6553;48.412;9.514;2023-02-28T01:11:54;19.70;53.40
12977;DHT22;6553;48.412;9.514;2023-02-28T01:14:20;19.70;53.40
12977;DHT22;6553;48.412;9.514;2023-02-28T01:16:45;19.80;53.50
12977;DHT22;6553;48.412;9.514;2023-02-28T01:19:11;19.80;53.60
12977;DHT22;6553;48.412;9.514;2023-02-28T01:21:38;19.80;53.60
12977;DHT22;6553;48.412;9.514;2023-02-28T01:24:05;19.80;53.50
12977;DHT22;6553;48.412;9.514;2023-02-28T01:26:32;19.70;53.40
12977;DHT22;6553;48.412;9.514;2023-02-28T01:28:58;19.80;53.50
12977;DHT22;6553;48.412;9.514;2023-02-28T01:31:25;19.80;53.50
12977;DHT22;6553;48.412;9.514;2023-02-28T01:33:51;19.80;53.50
12977;DHT22;6553;48.412;9.514;2023-02-28T01:36:21;19.70;53.50
12977;DHT22;6553;48.412;9.514;2023-02-28T01:38:48;19.70;53.40
12977;DHT22;6553;48.412;9.514;2023-02-28T01:41:26;19.70;53.50
12977;DHT22;6553;48.412;9.514;2023-02-28T01:46:51;19.80;53.60
12977;DHT22;6553;48.412;9.514;2023-02-28T01:49:17;19.80;53.70
12977;DHT22;6553;48.412;9.514;2023-02-28T01:51:54;19.70;53.60
12977;DHT22;6553;48.412;9.514;2023-02-28T01:54:22;19.80;53.50
12977;DHT22;6553;48.412;9.514;2023-02-28T01:56:55;19.80;53.60
12977;DHT22;6553;48.412;9.514;2023-02-28T01:59:34;19.80;53.60
12977;DHT22;6553;48.412;9.514;2023-02-28T02:02:03;19.80;53.60
12977;DHT22;6553;48.412;9.514;2023-02-28T02:04:39;19.70;53.50
12977;DHT22;6553;48.412;9.514;2023-02-28T02:07:13;19.70;53.60
12977;DHT22;6553;48.412;9.514;2023-02-28T02:09:43;19.80;53.50
12977;DHT22;6553;48.412;9.514;2023-02-28T02:12:33;19.80;53.70
12977;DHT22;6553;48.412;9.514;2023-02-28T02:36:18;19.80;53.90
12977;DHT22;6553;48.412;9.514;2023-02-28T02:39:04;19.80;53.80
12977;DHT22;6553;48.412;9.514;2023-02-28T02:41:51;19.80;53.60
12977;DHT22;6553;48.412;9.514;2023-02-28T02:47:18;19.80;53.80
12977;DHT22;6553;48.412;9.514;2023-02-28T02:49:56;19.80;53.70
12977;DHT22;6553;48.412;9.514;2023-02-28T02:52:31;19.80;53.70
12977;DHT22;6553;48.412;9.514;2023-02-28T02:55:05;19.80;53.80
12977;DHT22;6553;48.412;9.514;2023-02-28T02:57:43;19.80;53.80
12977;DHT22;6553;48.412;9.514;2023-02-28T03:00:18;19.80;53.70
12977;DHT22;6553;48.412;9.514;2023-02-28T03:02:49;19.80;53.70
12977;DHT22;6553;48.412;9.514;2023-02-28T03:05:32;19.80;53.70
12977;DHT22;6553;48.412;9.514;2023-02-28T03:08:05;19.80;53.70
12977;DHT22;6553;48.412;9.514;2023-02-28T03:10:35;19.80;53.80
12977;DHT22;6553;48.412;9.514;2023-02-28T03:21:55;19.80;53.70
12977;DHT22;6553;48.412;9.514;2023-02-28T03:29:58;19.80;53.70
12977;DHT22;6553;48.412;9.514;2023-02-28T03:32:35;19.80;53.70
12977;DHT22;6553;48.412;9.514;2023-02-28T03:35:16;19.80;53.70
12977;DHT22;6553;48.412;9.514;2023-02-28T03:37:52;19.80;53.70
12977;DHT22;6553;48.412;9.514;2023-02-28T03:40:23;19.80;53.70
12977;DHT22;6553;48.412;9.514;2023-02-28T03:42:59;19.80;53.60
12977;DHT22;6553;48.412;9.514;2023-02-28T03:45:33;19.80;53.70
12977;DHT22;6553;48.412;9.514;2023-02-28T03:48:19;19.80;53.70
12977;DHT22;6553;48.412;9.514;2023-02-28T03:50:57;19.80;53.70
12977;DHT22;6553;48.412;9.514;2023-02-28T03:53:34;19.80;53.80
12977;DHT22;6553;48.412;9.514;2023-02-28T03:56:18;19.80;53.80
12977;DHT22;6553;48.412;9.514;2023-02-28T03:58:58;19.80;53.60
12977;DHT22;6553;48.412;9.514;2023-02-28T04:03:53;19.80;53.70
12977;DHT22;6553;48.412;9.514;2023-02-28T04:06:21;19.80;53.70
12977;DHT22;6553;48.412;9.514;2023-02-28T04:08:49;19.80;53.60
12977;DHT22;6553;48.412;9.514;2023-02-28T04:11:18;19.80;53.70
12977;DHT22;6553;48.412;9.514;2023-02-28T04:13:47;19.80;53.60
12977;DHT22;6553;48.412;9.514;2023-02-28T04:16:13;19.80;53.70
12977;DHT22;6553;48.412;9.514;2023-02-28T04:18:39;19.80;53.70
12977;DHT22;6553;48.412;9.514;2023-02-28T04:21:06;19.80;53.60
12977;DHT22;6553;48.412;9.514;2023-02-28T04:23:32;19.80;53.50
12977;DHT22;6553;48.412;9.514;2023-02-28T04:25:58;19.80;53.70
12977;DHT22;6553;48.412;9.514;2023-02-28T04:28:24;19.80;53.70
12977;DHT22;6553;48.412;9.514;2023-02-28T04:30:58;19.80;53.70
12977;DHT22;6553;48.412;9.514;2023-02-28T04:33:28;19.80;53.60
12977;DHT22;6553;48.412;9.514;2023-02-28T04:36:06;19.80;53.60
12977;DHT22;6553;48.412;9.514;2023-02-28T04:38:37;19.80;53.60
12977;DHT22;6553;48.412;9.514;2023-02-28T04:41:05;19.80;53.50
12977;DHT22;6553;48.412;9.514;2023-02-28T04:43:31;19.80;53.70
12977;DHT22;6553;48.412;9.514;2023-02-28T04:46:00;19.80;53.60
12977;DHT22;6553;48.412;9.514;2023-02-28T04:48:29;19.80;53.60
12977;DHT22;6553;48.412;9.514;2023-02-28T04:51:03;19.80;54.20
12977;DHT22;6553;48.412;9.514;2023-02-28T04:53:32;19.80;53.70
12977;DHT22;6553;48.412;9.514;2023-02-28T04:55:58;19.80;53.70
12977;DHT22;6553;48.412;9.514;2023-02-28T04:58:25;19.80;53.50
12977;DHT22;6553;48.412;9.514;2023-02-28T05:00:51;19.80;53.70
12977;DHT22;6553;48.412;9.514;2023-02-28T05:03:18;19.80;53.60
12977;DHT22;6553;48.412;9.514;2023-02-28T05:05:46;19.80;53.60
12977;DHT22;6553;48.412;9.514;2023-02-28T05:08:12;19.80;53.70
12977;DHT22;6553;48.412;9.514;2023-02-28T05:10:38;19.80;53.50
12977;DHT22;6553;48.412;9.514;2023-02-28T05:13:04;19.80;53.60
12977;DHT22;6553;48.412;9.514;2023-02-28T05:15:30;19.80;53.50
12977;DHT22;6553;48.412;9.514;2023-02-28T05:17:56;19.80;53.50
12977;DHT22;6553;48.412;9.514;2023-02-28T05:20:21;19.80;53.50
12977;DHT22;6553;48.412;9.514;2023-02-28T05:22:47;19.80;53.60
12977;DHT22;6553;48.412;9.514;2023-02-28T05:25:18;19.80;53.60
12977;DHT22;6553;48.412;9.514;2023-02-28T05:27:47;19.80;53.70
12977;DHT22;6553;48.412;9.514;2023-02-28T05:30:13;19.80;53.70
12977;DHT22;6553;48.412;9.514;2023-02-28T05:32:40;19.80;53.60
12977;DHT22;6553;48.412;9.514;2023-02-28T05:35:10;19.80;53.70
12977;DHT22;6553;48.412;9.514;2023-02-28T05:37:38;19.80;53.70
12977;DHT22;6553;48.412;9.514;2023-02-28T05:40:06;19.80;53.80
12977;DHT22;6553;48.412;9.514;2023-02-28T05:42:36;19.80;53.80
12977;DHT22;6553;48.412;9.514;2023-02-28T05:45:03;19.80;54.00
12977;DHT22;6553;48.412;9.514;2023-02-28T05:47:30;19.80;53.80
12977;DHT22;6553;48.412;9.514;2023-02-28T05:49:56;19.90;53.90
12977;DHT22;6553;48.412;9.514;2023-02-28T05:52:21;19.80;54.20
12977;DHT22;6553;48.412;9.514;2023-02-28T05:54:47;19.80;54.10
12977;DHT22;6553;48.412;9.514;2023-02-28T05:57:13;19.80;53.70
12977;DHT22;6553;48.412;9.514;2023-02-28T05:59:39;19.80;54.20
12977;DHT22;6553;48.412;9.514;2023-02-28T06:02:06;19.80;53.70
12977;DHT22;6553;48.412;9.514;2023-02-28T06:04:37;19.80;54.00
12977;DHT22;6553;48.412;9.514;2023-02-28T06:07:03;19.80;53.80
12977;DHT22;6553;48.412;9.514;2023-02-28T06:09:29;19.80;53.90
12977;DHT22;6553;48.412;9.514;2023-02-28T06:11:58;19.80;53.90
12977;DHT22;6553;48.412;9.514;2023-02-28T06:14:24;19.80;53.70
12977;DHT22;6553;48.412;9.514;2023-02-28T06:16:50;19.80;53.70
12977;DHT22;6553;48.412;9.514;2023-02-28T06:19:16;19.80;53.70
12977;DHT22;6553;48.412;9.514;2023-02-28T06:21:43;19.80;53.70
12977;DHT22;6553;48.412;9.514;2023-02-28T06:24:09;19.80;53.70
12977;DHT22;6553;48.412;9.514;2023-02-28T06:26:35;19.80;53.70
12977;DHT22;6553;48.412;9.514;2023-02-28T06:29:01;19.80;53.60
12977;DHT22;6553;48.412;9.514;2023-02-28T06:31:28;19.80;53.60
12977;DHT22;6553;48.412;9.514;2023-02-28T06:33:54;19.80;53.90
12977;DHT22;6553;48.412;9.514;2023-02-28T06:36:21;19.80;53.60
12977;DHT22;6553;48.412;9.514;2023-02-28T06:38:47;19.80;54.00
12977;DHT22;6553;48.412;9.514;2023-02-28T06:41:21;19.80;54.10
12977;DHT22;6553;48.412;9.514;2023-02-28T06:43:48;19.80;53.90
12977;DHT22;6553;48.412;9.514;2023-02-28T06:46:14;19.80;54.10
12977;DHT22;6553;48.412;9.514;2023-02-28T06:48:42;19.80;54.00
12977;DHT22;6553;48.412;9.514;2023-02-28T06:51:12;19.80;53.70
12977;DHT22;6553;48.412;9.514;2023-02-28T06:53:40;19.80;54.00
12977;DHT22;6553;48.412;9.514;2023-02-28T06:56:09;19.80;53.90
12977;DHT22;6553;48.412;9.514;2023-02-28T06:58:41;19.80;54.00
12977;DHT22;6553;48.412;9.514;2023-02-28T07:01:08;19.80;53.80
12977;DHT22;6553;48.412;9.514;2023-02-28T07:03:37;19.80;53.90
12977;DHT22;6553;48.412;9.514;2023-02-28T07:06:05;19.80;53.80
12977;DHT22;6553;48.412;9.514;2023-02-28T07:08:31;19.80;54.00
12977;DHT22;6553;48.412;9.514;2023-02-28T07:10:57;19.80;53.80
12977;DHT22;6553;48.412;9.514;2023-02-28T07:13:23;19.80;53.70
12977;DHT22;6553;48.412;9.514;2023-02-28T07:15:56;19.80;53.80
12977;DHT22;6553;48.412;9.514;2023-02-28T07:18:27;19.80;53.80
12977;DHT22;6553;48.412;9.514;2023-02-28T07:20:53;19.80;54.00
12977;DHT22;6553;48.412;9.514;2023-02-28T07:23:19;19.80;53.80
12977;DHT22;6553;48.412;9.514;2023-02-28T07:25:47;19.80;53.80
12977;DHT22;6553;48.412;9.514;2023-02-28T07:28:14;19.80;54.00
12977;DHT22;6553;48.412;9.514;2023-02-28T07:30:40;19.80;53.80
12977;DHT22;6553;48.412;9.514;2023-02-28T07:33:06;19.80;53.80
12977;DHT22;6553;48.412;9.514;2023-02-28T07:35:32;19.90;53.70
12977;DHT22;6553;48.412;9.514;2023-02-28T07:37:59;19.80;53.70
12977;DHT22;6553;48.412;9.514;2023-02-28T07:40:26;19.80;53.80
12977;DHT22;6553;48.412;9.514;2023-02-28T07:42:52;19.80;53.70
12977;DHT22;6553;48.412;9.514;2023-02-28T07:45:18;19.80;53.60
12977;DHT22;6553;48.412;9.514;2023-02-28T07:47:45;19.80;53.80
12977;DHT22;6553;48.412;9.514;2023-02-28T07:50:14;19.80;53.70
12977;DHT22;6553;48.412;9.514;2023-02-28T07:52:41;19.80;53.50
12977;DHT22;6553;48.412;9.514;2023-02-28T07:55:08;19.80;53.70
12977;DHT22;6553;48.412;9.514;2023-02-28T07:57:35;19.80;53.70
12977;DHT22;6553;48.412;9.514;2023-02-28T08:00:02;19.80;53.50
12977;DHT22;6553;48.412;9.514;2023-02-28T08:02:37;19.80;53.60
12977;DHT22;6553;48.412;9.514;2023-02-28T08:05:03;19.80;53.50
12977;DHT22;6553;48.412;9.514;2023-02-28T08:07:29;19.80;53.60
12977;DHT22;6553;48.412;9.514;2023-02-28T08:09:54;19.80;53.50
12977;DHT22;6553;48.412;9.514;2023-02-28T08:12:20;19.80;53.50
12977;DHT22;6553;48.412;9.514;2023-02-28T08:14:46;19.80;53.50
12977;DHT22;6553;48.412;9.514;2023-02-28T08:17:12;19.80;53.40
12977;DHT22;6553;48.412;9.514;2023-02-28T08:19:38;19.80;53.50
12977;DHT22;6553;48.412;9.514;2023-02-28T08:22:04;19.90;53.50
12977;DHT22;6553;48.412;9.514;2023-02-28T08:24:30;19.90;53.40
12977;DHT22;6553;48.412;9.514;2023-02-28T08:26:56;19.90;53.40
12977;DHT22;6553;48.412;9.514;2023-02-28T08:29:22;19.90;53.60
12977;DHT22;6553;48.412;9.514;2023-02-28T08:31:48;19.90;53.50
12977;DHT22;6553;48.412;9.514;2023-02-28T08:34:15;19.90;53.50
12977;DHT22;6553;48.412;9.514;2023-02-28T08:36:41;19.80;53.30
12977;DHT22;6553;48.412;9.514;2023-02-28T08:39:09;19.90;53.40
12977;DHT22;6553;48.412;9.514;2023-02-28T08:41:36;19.90;53.40
12977;DHT22;6553;48.412;9.514;2023-02-28T08:44:02;19.90;53.40
12977;DHT22;6553;48.412;9.514;2023-02-28T08:46:28;19.90;53.40
12977;DHT22;6553;48.412;9.514;2023-02-28T08:48:55;19.90;53.30
12977;DHT22;6553;48.412;9.514;2023-02-28T08:51:25;19.90;53.40
12977;DHT22;6553;48.412;9.514;2023-02-28T08:53:52;19.90;53.20
12977;DHT22;6553;48.412;9.514;2023-02-28T08:56:19;19.90;53.30
12977;DHT22;6553;48.412;9.514;2023-02-28T08:58:48;19.90;53.30
12977;DHT22;6553;48.412;9.514;2023-02-28T09:01:18;19.90;53.20
12977;DHT22;6553;48.412;9.514;2023-02-28T09:03:46;19.90;53.20
12977;DHT22;6553;48.412;9.514;2023-02-28T09:06:14;19.90;53.30
12977;DHT22;6553;48.412;9.514;2023-02-28T09:08:42;19.90;53.20
12977;DHT22;6553;48.412;9.514;2023-02-28T09:11:09;19.90;53.20
12977;DHT22;6553;48.412;9.514;2023-02-28T09:13:36;19.90;53.20
12977;DHT22;6553;48.412;9.514;2023-02-28T09:16:04;19.90;53.20
12977;DHT22;6553;48.412;9.514;2023-02-28T09:18:31;19.90;53.10
12977;DHT22;6553;48.412;9.514;2023-02-28T09:20:58;19.90;53.20
12977;DHT22;6553;48.412;9.514;2023-02-28T09:23:24;19.90;53.20
12977;DHT22;6553;48.412;9.514;2023-02-28T09:25:53;20.00;53.30
12977;DHT22;6553;48.412;9.514;2023-02-28T09:28:20;19.90;53.10
12977;DHT22;6553;48.412;9.514;2023-02-28T09:30:50;19.90;53.20
12977;DHT22;6553;48.412;9.514;2023-02-28T09:33:18;19.90;53.10
12977;DHT22;6553;48.412;9.514;2023-02-28T09:35:49;19.90;53.10
12977;DHT22;6553;48.412;9.514;2023-02-28T09:38:16;19.90;53.10
12977;DHT22;6553;48.412;9.514;2023-02-28T09:40:58;19.90;53.70
12977;DHT22;6553;48.412;9.514;2023-02-28T09:43:32;19.90;53.10
12977;DHT22;6553;48.412;9.514;2023-02-28T09:48:52;19.90;53.00
12977;DHT22;6553;48.412;9.514;2023-02-28T09:51:31;19.90;53.00
12977;DHT22;6553;48.412;9.514;2023-02-28T09:54:02;20.00;53.20
12977;DHT22;6553;48.412;9.514;2023-02-28T10:01:40;20.00;53.10
12977;DHT22;6553;48.412;9.514;2023-02-28T10:07:48;20.00;53.00
12977;DHT22;6553;48.412;9.514;2023-02-28T10:10:44;20.00;53.20
12977;DHT22;6553;48.412;9.514;2023-02-28T10:16:34;20.00;53.10
12977;DHT22;6553;48.412;9.514;2023-02-28T10:22:29;19.80;52.20
12977;DHT22;6553;48.412;9.514;2023-02-28T10:25:16;19.80;52.90
12977;DHT22;6553;48.412;9.514;2023-02-28T10:27:46;19.90;52.50
12977;DHT22;6553;48.412;9.514;2023-02-28T10:30:12;19.90;52.60
12977;DHT22;6553;48.412;9.514;2023-02-28T10:32:49;20.00;52.60
12977;DHT22;6553;48.412;9.514;2023-02-28T10:35:22;19.90;52.40
12977;DHT22;6553;48.412;9.514;2023-02-28T10:38:01;19.90;52.40
12977;DHT22;6553;48.412;9.514;2023-02-28T10:40:41;20.00;52.40
12977;DHT22;6553;48.412;9.514;2023-02-28T10:45:38;20.00;52.50
12977;DHT22;6553;48.412;9.514;2023-02-28T10:50:44;20.00;52.50
12977;DHT22;6553;48.412;9.514;2023-02-28T10:56:21;20.00;52.50
12977;DHT22;6553;48.412;9.514;2023-02-28T11:04:03;20.00;52.60
12977;DHT22;6553;48.412;9.514;2023-02-28T11:06:31;20.00;52.70
12977;DHT22;6553;48.412;9.514;2023-02-28T11:09:04;20.00;52.80
12977;DHT22;6553;48.412;9.514;2023-02-28T11:11:44;20.00;52.70
12977;DHT22;6553;48.412;9.514;2023-02-28T11:16:51;20.10;53.10
12977;DHT22;6553;48.412;9.514;2023-02-28T11:19:40;20.10;53.20
12977;DHT22;6553;48.412;9.514;2023-02-28T11:22:11;20.10;52.90
12977;DHT22;6553;48.412;9.514;2023-02-28T11:24:47;20.10;53.00
12977;DHT22;6553;48.412;9.514;2023-02-28T11:29:57;20.10;53.00
12977;DHT22;6553;48.412;9.514;2023-02-28T11:32:26;20.10;53.10
12977;DHT22;6553;48.412;9.514;2023-02-28T11:35:15;20.10;53.20
12977;DHT22;6553;48.412;9.514;2023-02-28T11:37:47;20.10;53.20
12977;DHT22;6553;48.412;9.514;2023-02-28T11:40:18;20.10;53.20
12977;DHT22;6553;48.412;9.514;2023-02-28T11:43:06;20.10;53.20
12977;DHT22;6553;48.412;9.514;2023-02-28T11:48:43;20.10;53.20
12977;DHT22;6553;48.412;9.514;2023-02-28T11:51:23;20.10;53.20
12977;DHT22;6553;48.412;9.514;2023-02-28T11:54:48;20.10;53.20
12977;DHT22;6553;48.412;9.514;2023-02-28T12:00:57;20.10;53.30
12977;DHT22;6553;48.412;9.514;2023-02-28T12:06:30;20.10;53.20
12977;DHT22;6553;48.412;9.514;2023-02-28T12:12:21;20.10;53.40
12977;DHT22;6553;48.412;9.514;2023-02-28T12:26:42;20.10;53.40
12977;DHT22;6553;48.412;9.514;2023-02-28T12:29:26;20.10;53.40
12977;DHT22;6553;48.412;9.514;2023-02-28T12:32:09;20.10;53.40
12977;DHT22;6553;48.412;9.514;2023-02-28T12:34:50;20.10;53.50
12977;DHT22;6553;48.412;9.514;2023-02-28T12:37:27;20.10;53.40
12977;DHT22;6553;48.412;9.514;2023-02-28T12:40:03;20.10;53.50
12977;DHT22;6553;48.412;9.514;2023-02-28T12:42:43;20.10;53.50
12977;DHT22;6553;48.412;9.514;2023-02-28T12:45:15;20.10;53.40
12977;DHT22;6553;48.412;9.514;2023-02-28T12:47:48;20.10;53.50
12977;DHT22;6553;48.412;9.514;2023-02-28T12:50:18;20.10;53.40
12977;DHT22;6553;48.412;9.514;2023-02-28T12:55:43;20.10;53.40
12977;DHT22;6553;48.412;9.514;2023-02-28T12:58:43;20.10;53.40
12977;DHT22;6553;48.412;9.514;2023-02-28T13:07:17;20.10;53.40
12977;DHT22;6553;48.412;9.514;2023-02-28T13:09:59;20.10;53.40
12977;DHT22;6553;48.412;9.514;2023-02-28T13:12:28;20.00;53.40
12977;DHT22;6553;48.412;9.514;2023-02-28T13:15:21;20.10;53.40
12977;DHT22;6553;48.412;9.514;2023-02-28T13:17:55;20.00;53.20
12977;DHT22;6553;48.412;9.514;2023-02-28T13:20:25;20.10;53.40
12977;DHT22;6553;48.412;9.514;2023-02-28T13:22:55;20.00;53.30
12977;DHT22;6553;48.412;9.514;2023-02-28T13:27:53;20.10;53.50
12977;DHT22;6553;48.412;9.514;2023-02-28T13:39:11;20.00;53.40
12977;DHT22;6553;48.412;9.514;2023-02-28T13:47:40;20.00;53.40
12977;DHT22;6553;48.412;9.514;2023-02-28T13:58:55;20.10;53.60
12977;DHT22;6553;48.412;9.514;2023-02-28T14:04:59;20.10;53.60
12977;DHT22;6553;48.412;9.514;2023-02-28T14:07:31;20.10;53.50
12977;DHT22;6553;48.412;9.514;2023-02-28T14:10:37;20.10;53.50
12977;DHT22;6553;48.412;9.514;2023-02-28T14:16:10;20.10;53.60
12977;DHT22;6553;48.412;9.514;2023-02-28T14:18:55;20.10;53.60
12977;DHT22;6553;48.412;9.514;2023-02-28T14:21:30;20.10;53.60
12977;DHT22;6553;48.412;9.514;2023-02-28T14:24:19;20.10;53.60
12977;DHT22;6553;48.412;9.514;2023-02-28T14:27:37;20.10;53.70
12977;DHT22;6553;48.412;9.514;2023-02-28T14:33:26;20.10;53.80
12977;DHT22;6553;48.412;9.514;2023-02-28T14:38:46;20.10;53.70
12977;DHT22;6553;48.412;9.514;2023-02-28T14:41:31;20.10;53.80
12977;DHT22;6553;48.412;9.514;2023-02-28T14:44:12;20.10;53.70
12977;DHT22;6553;48.412;9.514;2023-02-28T14:46:58;20.10;53.70
12977;DHT22;6553;48.412;9.514;2023-02-28T14:49:32;20.10;53.80
12977;DHT22;6553;48.412;9.514;2023-02-28T14:52:21;20.10;53.80
12977;DHT22;6553;48.412;9.514;2023-02-28T14:54:57;20.10;54.00
12977;DHT22;6553;48.412;9.514;2023-02-28T14:57:30;20.10;53.90
12977;DHT22;6553;48.412;9.514;2023-02-28T15:00:16;20.10;53.90
12977;DHT22;6553;48.412;9.514;2023-02-28T15:02:48;20.10;53.90
12977;DHT22;6553;48.412;9.514;2023-02-28T15:07:44;20.10;54.10
12977;DHT22;6553;48.412;9.514;2023-02-28T15:10:29;20.10;54.00
12977;DHT22;6553;48.412;9.514;2023-02-28T15:13:02;20.10;54.00
12977;DHT22;6553;48.412;9.514;2023-02-28T15:15:41;20.10;54.10
12977;DHT22;6553;48.412;9.514;2023-02-28T15:18:27;20.10;54.20
12977;DHT22;6553;48.412;9.514;2023-02-28T15:21:07;20.10;54.10
12977;DHT22;6553;48.412;9.514;2023-02-28T15:23:37;20.10;53.90
12977;DHT22;6553;48.412;9.514;2023-02-28T15:26:06;20.10;54.00
12977;DHT22;6553;48.412;9.514;2023-02-28T15:28:32;20.10;54.00
12977;DHT22;6553;48.412;9.514;2023-02-28T15:31:00;20.10;54.70
12977;DHT22;6553;48.412;9.514;2023-02-28T15:33:33;20.10;54.00
12977;DHT22;6553;48.412;9.514;2023-02-28T15:36:26;20.10;54.10
12977;DHT22;6553;48.412;9.514;2023-02-28T15:38:55;20.10;54.10
12977;DHT22;6553;48.412;9.514;2023-02-28T15:41:27;20.10;54.10
12977;DHT22;6553;48.412;9.514;2023-02-28T15:49:28;19.20;43.70
12977;DHT22;6553;48.412;9.514;2023-02-28T15:51:59;19.40;52.70
12977;DHT22;6553;48.412;9.514;2023-02-28T15:54:32;19.60;53.50
12977;DHT22;6553;48.412;9.514;2023-02-28T15:57:05;19.70;53.30
12977;DHT22;6553;48.412;9.514;2023-02-28T15:59:35;19.90;53.10
12977;DHT22;6553;48.412;9.514;2023-02-28T16:02:29;19.90;53.10
12977;DHT22;6553;48.412;9.514;2023-02-28T16:07:32;20.00;53.00
12977;DHT22;6553;48.412;9.514;2023-02-28T16:10:00;20.00;53.10
12977;DHT22;6553;48.412;9.514;2023-02-28T16:12:29;20.00;53.10
12977;DHT22;6553;48.412;9.514;2023-02-28T16:15:02;20.00;53.00
12977;DHT22;6553;48.412;9.514;2023-02-28T16:17:35;20.00;53.00
12977;DHT22;6553;48.412;9.514;2023-02-28T16:20:28;20.00;53.00
12977;DHT22;6553;48.412;9.514;2023-02-28T16:22:56;20.00;53.10
12977;DHT22;6553;48.412;9.514;2023-02-28T16:25:37;20.00;53.10
12977;DHT22;6553;48.412;9.514;2023-02-28T16:28:20;20.00;53.10
12977;DHT22;6553;48.412;9.514;2023-02-28T16:30:51;20.00;53.20
12977;DHT22;6553;48.412;9.514;2023-02-28T16:33:18;20.00;53.10
12977;DHT22;6553;48.412;9.514;2023-02-28T16:35:44;20.00;53.20
12977;DHT22;6553;48.412;9.514;2023-02-28T16:38:10;19.90;53.10
12977;DHT22;6553;48.412;9.514;2023-02-28T16:40:36;19.90;53.10
12977;DHT22;6553;48.412;9.514;2023-02-28T16:43:07;19.90;53.10
12977;DHT22;6553;48.412;9.514;2023-02-28T16:45:39;19.90;53.10
12977;DHT22;6553;48.412;9.514;2023-02-28T16:48:05;19.90;53.20
12977;DHT22;6553;48.412;9.514;2023-02-28T16:50:31;19.90;53.20
12977;DHT22;6553;48.412;9.514;2023-02-28T16:53:00;19.90;53.20
12977;DHT22;6553;48.412;9.514;2023-02-28T16:55:26;19.90;53.10
12977;DHT22;6553;48.412;9.514;2023-02-28T16:57:58;19.90;53.20
12977;DHT22;6553;48.412;9.514;2023-02-28T17:00:27;19.90;53.20
12977;DHT22;6553;48.412;9.514;2023-02-28T17:02:55;19.90;53.20
12977;DHT22;6553;48.412;9.514;2023-02-28T17:05:22;19.90;53.30
12977;DHT22;6553;48.412;9.514;2023-02-28T17:07:49;19.90;53.20
12977;DHT22;6553;48.412;9.514;2023-02-28T17:10:18;19.90;53.20
12977;DHT22;6553;48.412;9.514;2023-02-28T17:12:47;19.90;53.40
12977;DHT22;6553;48.412;9.514;2023-02-28T17:15:15;19.90;53.20
12977;DHT22;6553;48.412;9.514;2023-02-28T17:17:43;19.90;53.30
12977;DHT22;6553;48.412;9.514;2023-02-28T17:20:15;19.90;53.30
12977;DHT22;6553;48.412;9.514;2023-02-28T17:22:43;19.80;53.30
12977;DHT22;6553;48.412;9.514;2023-02-28T17:25:10;19.90;53.40
12977;DHT22;6553;48.412;9.514;2023-02-28T17:27:36;19.90;53.30
12977;DHT22;6553;48.412;9.514;2023-02-28T17:30:17;19.80;53.30
12977;DHT22;6553;48.412;9.514;2023-02-28T17:32:45;19.80;53.30
12977;DHT22;6553;48.412;9.514;2023-02-28T17:35:12;19.90;53.30
12977;DHT22;6553;48.412;9.514;2023-02-28T17:37:38;19.90;53.20
12977;DHT22;6553;48.412;9.514;2023-02-28T17:40:04;19.80;53.30
12977;DHT22;6553;48.412;9.514;2023-02-28T17:42:31;19.80;53.30
12977;DHT22;6553;48.412;9.514;2023-02-28T17:44:57;19.90;53.40
12977;DHT22;6553;48.412;9.514;2023-02-28T17:47:23;19.90;53.40
12977;DHT22;6553;48.412;9.514;2023-02-28T17:49:48;19.80;53.40
12977;DHT22;6553;48.412;9.514;2023-02-28T17:52:14;19.90;53.40
12977;DHT22;6553;48.412;9.514;2023-02-28T17:54:40;19.90;53.50
12977;DHT22;6553;48.412;9.514;2023-02-28T17:57:05;19.80;53.40
12977;DHT22;6553;48.412;9.514;2023-02-28T17:59:31;19.80;53.40
12977;DHT22;6553;48.412;9.514;2023-02-28T18:02:02;19.80;53.40
12977;DHT22;6553;48.412;9.514;2023-02-28T18:04:29;19.80;53.40
12977;DHT22;6553;48.412;9.514;2023-02-28T18:06:55;19.80;53.40
12977;DHT22;6553;48.412;9.514;2023-02-28T18:09:26;19.80;53.50
12977;DHT22;6553;48.412;9.514;2023-02-28T18:11:54;19.80;53.50
12977;DHT22;6553;48.412;9.514;2023-02-28T18:14:22;19.80;53.50
12977;DHT22;6553;48.412;9.514;2023-02-28T18:16:52;19.80;53.50
12977;DHT22;6553;48.412;9.514;2023-02-28T18:19:19;19.80;53.40
12977;DHT22;6553;48.412;9.514;2023-02-28T18:21:51;19.80;53.50
12977;DHT22;6553;48.412;9.514;2023-02-28T18:24:20;19.80;53.60
12977;DHT22;6553;48.412;9.514;2023-02-28T18:26:49;19.80;53.50
12977;DHT22;6553;48.412;9.514;2023-02-28T18:29:24;19.80;53.60
12977;DHT22;6553;48.412;9.514;2023-02-28T18:31:53;19.80;53.60
12977;DHT22;6553;48.412;9.514;2023-02-28T18:34:21;19.80;53.70
12977;DHT22;6553;48.412;9.514;2023-02-28T18:36:48;19.80;53.60
12977;DHT22;6553;48.412;9.514;2023-02-28T18:39:15;19.80;53.70
12977;DHT22;6553;48.412;9.514;2023-02-28T18:41:42;19.80;53.60
12977;DHT22;6553;48.412;9.514;2023-02-28T18:44:08;19.80;53.60
12977;DHT22;6553;48.412;9.514;2023-02-28T18:46:34;19.80;53.80
12977;DHT22;6553;48.412;9.514;2023-02-28T18:49:00;19.80;53.70
12977;DHT22;6553;48.412;9.514;2023-02-28T18:51:27;19.80;53.80